»·PEaware :: ANW942 KLAS-KSAN

ANW942 :: KLAS-KSAN

FLIGHT INFORMATION

Flight Status: Arrived
Operator:
Air Northwest (website)
More flights by this operator :: More flights under this callsign
Pilot: Brian G. (1243)
Aircraft: BOEING 737-800
(B738)
More flights by this aircraft type
Origin: KLAS McCarran Intl
United States
Destination: KSAN San Diego Intl-Lindbergh
United States
More flights between these airports :: More routes between these airports
Route: +MCCRN3 TNP BARET4
File this flight plan on PilotEdge
Remarks:
Altitude:
(Current/Filed)
20,000ft
Speed:
(Current/Filed)
447kts
Departed: 08-Apr-13 03:23 PM
Arrived: 08-Apr-13 04:09 PM
Distance/Time
Traveled:
225nm/0:45
Distance/Time
To Go:
Arrived

Flight Plot

Page will automatically refresh every two minutes.


Map Options




Map Legend


Flown Route
Filed Route
Departure Airport
Arrival Airport
Navaid (VOR, NDB)
Fix

Horizontal Profiles

Position Reports

Time Latitude Longitude Heading Altitude Ground
Speed
08-Apr-13 15:01 36.084954 -115.154900 65 2190ft 0kts
08-Apr-13 15:02 36.084954 -115.154900 65 2190ft 0kts
08-Apr-13 15:03 36.084954 -115.154900 65 2190ft 0kts
08-Apr-13 15:04 36.084954 -115.154900 65 2190ft 0kts
08-Apr-13 15:05 36.084954 -115.154900 65 2190ft 0kts
08-Apr-13 15:06 36.084954 -115.154900 65 2190ft 0kts
08-Apr-13 15:07 36.084954 -115.154900 65 2190ft 0kts
08-Apr-13 15:08 36.084954 -115.154900 65 2190ft 0kts
08-Apr-13 15:09 36.084954 -115.154900 65 2190ft 0kts
08-Apr-13 15:10 36.084954 -115.154900 65 2190ft 0kts
08-Apr-13 15:11 36.084954 -115.154900 65 2190ft 0kts
08-Apr-13 15:12 36.084954 -115.154900 65 2190ft 0kts
08-Apr-13 15:13 36.084954 -115.154900 65 2190ft 0kts
08-Apr-13 15:14 36.084895 -115.155192 95 2190ft 2kts
08-Apr-13 15:15 36.085269 -115.155672 155 2190ft 0kts
08-Apr-13 15:16 36.083735 -115.156232 154 2190ft 14kts
08-Apr-13 15:17 36.078589 -115.153250 155 2190ft 18kts
08-Apr-13 15:18 36.077797 -115.149690 94 2190ft 10kts
08-Apr-13 15:19 36.077600 -115.146131 94 2190ft 10kts
08-Apr-13 15:20 36.077482 -115.142418 89 2190ft 11kts
08-Apr-13 15:21 36.077503 -115.138505 89 2190ft 11kts
08-Apr-13 15:22 36.076922 -115.137863 176 2190ft 8kts
08-Apr-13 15:23 36.076330 -115.159291 268 2428ft 155kts
08-Apr-13 15:24 36.074860 -115.219467 269 6316ft 192kts
08-Apr-13 15:25 36.031322 -115.264906 203 10050ft 248kts
08-Apr-13 15:26 35.958771 -115.293653 202 13192ft 301kts
08-Apr-13 15:27 35.872341 -115.321361 182 16461ft 340kts
08-Apr-13 15:28 35.774320 -115.300136 166 18535ft 401kts
08-Apr-13 15:29 35.656201 -115.274339 174 19528ft 463kts
08-Apr-13 15:30 35.532116 -115.256778 172 19531ft 449kts
08-Apr-13 15:31 35.407994 -115.228248 172 19528ft 454kts
08-Apr-13 15:32 35.282999 -115.207944 175 19528ft 454kts
08-Apr-13 15:33 35.157725 -115.189105 178 19524ft 453kts
08-Apr-13 15:34 35.037565 -115.222864 205 19530ft 443kts
08-Apr-13 15:35 34.924268 -115.280376 207 19529ft 439kts
08-Apr-13 15:36 34.810856 -115.335600 205 19540ft 438kts
08-Apr-13 15:37 34.694940 -115.382537 202 19576ft 440kts
08-Apr-13 15:38 34.577571 -115.425752 202 19587ft 441kts
08-Apr-13 15:39 34.461007 -115.472051 205 19610ft 440kts
08-Apr-13 15:40 34.345389 -115.521405 206 19627ft 441kts
08-Apr-13 15:41 34.252906 -115.607190 235 19656ft 415kts
08-Apr-13 15:42 34.174750 -115.710454 233 19656ft 422kts
08-Apr-13 15:43 34.075997 -115.793622 210 19667ft 450kts
08-Apr-13 15:44 33.955560 -115.839095 201 19674ft 456kts
08-Apr-13 15:45 33.831666 -115.872376 197 19665ft 458kts
08-Apr-13 15:46 33.706170 -115.899920 197 19638ft 459kts
08-Apr-13 15:47 33.582488 -115.933530 201 19616ft 455kts
08-Apr-13 15:48 33.479576 -116.000760 239 19625ft 407kts
08-Apr-13 15:49 33.420480 -116.114233 247 19613ft 400kts
08-Apr-13 15:50 33.360861 -116.226900 245 19436ft 398kts
08-Apr-13 15:51 33.298317 -116.331261 241 17703ft 381kts
08-Apr-13 15:52 33.214901 -116.413902 219 15981ft 399kts
08-Apr-13 15:53 33.116428 -116.474214 212 14251ft 398kts
08-Apr-13 15:54 33.014831 -116.528613 211 12517ft 400kts
08-Apr-13 15:55 32.915324 -116.579758 210 11994ft 376kts
08-Apr-13 15:56 32.822143 -116.625873 209 11895ft 351kts
08-Apr-13 15:57 32.741942 -116.666590 209 10080ft 288kts
08-Apr-13 15:58 32.678829 -116.710489 221 8290ft 241kts
08-Apr-13 15:59 32.640274 -116.764860 249 6525ft 207kts
08-Apr-13 16:00 32.644777 -116.822077 293 5051ft 157kts
08-Apr-13 16:01 32.657739 -116.869759 284 5001ft 151kts
08-Apr-13 16:02 32.668147 -116.918416 283 4931ft 155kts
08-Apr-13 16:03 32.678255 -116.962752 286 3900ft 127kts
08-Apr-13 16:04 32.687401 -117.002315 291 3281ft 122kts
08-Apr-13 16:05 32.697700 -117.040834 288 2638ft 123kts
08-Apr-13 16:06 32.707612 -117.080812 283 1992ft 131kts
08-Apr-13 16:07 32.717650 -117.123608 283 1382ft 137kts
08-Apr-13 16:08 32.728270 -117.167566 284 371ft 130kts
08-Apr-13 16:09 32.734514 -117.193654 285 24ft 26kts
08-Apr-13 16:10 32.733922 -117.195337 283 24ft 5kts
08-Apr-13 16:11 32.733579 -117.196449 173 24ft 0kts
08-Apr-13 16:12 32.733579 -117.196449 173 24ft 0kts

Navigation Log

Ident Type
Flight plan parsing failed, navigation log unavailable